createdAt,value
2022-12-08T00:02:15.137Z,58.25
2022-12-08T00:04:42.240Z,58.22
2022-12-08T00:07:09.155Z,58.68
2022-12-08T00:09:39.905Z,58.38
2022-12-08T00:12:07.291Z,57.96
2022-12-08T00:14:42.594Z,58.01
2022-12-08T00:17:11.686Z,58.87
2022-12-08T00:19:39.803Z,58.85
2022-12-08T00:22:11.095Z,58.80
2022-12-08T00:24:40.095Z,58.76
2022-12-08T00:27:08.682Z,58.55
2022-12-08T00:29:35.635Z,58.85
2022-12-08T00:32:03.114Z,58.72
2022-12-08T00:34:31.444Z,59.12
2022-12-08T00:36:58.534Z,59.19
2022-12-08T00:39:25.449Z,58.22
2022-12-08T00:41:52.651Z,57.92
2022-12-08T00:44:19.945Z,57.99
2022-12-08T00:46:48.197Z,58.00
2022-12-08T00:49:16.313Z,58.18
2022-12-08T00:51:44.144Z,58.07
2022-12-08T00:54:11.769Z,58.13
2022-12-08T00:56:38.851Z,57.86
2022-12-08T00:59:08.275Z,57.56
2022-12-08T01:01:35.901Z,58.28
2022-12-08T01:04:08.516Z,58.13
2022-12-08T01:06:36.241Z,58.33
2022-12-08T01:09:04.953Z,58.07
2022-12-08T01:11:32.495Z,58.48
2022-12-08T01:13:59.401Z,58.40
2022-12-08T01:16:29.796Z,58.18
2022-12-08T01:19:00.995Z,58.02
2022-12-08T01:21:29.058Z,57.67
2022-12-08T01:23:56.235Z,57.43
2022-12-08T01:26:23.241Z,57.43
2022-12-08T01:28:50.413Z,56.97
2022-12-08T01:31:20.505Z,57.23
2022-12-08T01:33:49.094Z,57.04
2022-12-08T01:36:26.849Z,57.48
2022-12-08T01:38:55.113Z,57.29
2022-12-08T01:41:25.091Z,57.38
2022-12-08T01:43:59.813Z,57.06
2022-12-08T01:46:28.845Z,58.11
2022-12-08T01:49:19.755Z,57.75
2022-12-08T01:51:54.506Z,57.42
2022-12-08T01:54:25.038Z,57.68
2022-12-08T01:57:15.676Z,58.51
2022-12-08T01:59:48.632Z,58.09
2022-12-08T02:02:15.849Z,58.28
2022-12-08T02:04:42.806Z,57.89
2022-12-08T02:07:13.305Z,57.42
2022-12-08T02:09:42.049Z,57.22
2022-12-08T02:12:10.223Z,56.83
2022-12-08T02:14:37.396Z,57.02
2022-12-08T02:17:04.159Z,57.26
2022-12-08T02:19:58.396Z,56.35
2022-12-08T02:22:45.418Z,56.28
2022-12-08T02:25:20.822Z,56.76
2022-12-08T02:28:18.528Z,57.07
2022-12-08T02:31:09.799Z,57.68
2022-12-08T02:34:01.273Z,57.59
2022-12-08T02:36:55.374Z,57.85
2022-12-08T02:39:49.367Z,57.57
2022-12-08T02:42:40.144Z,57.62
2022-12-08T02:45:07.047Z,56.90
2022-12-08T02:47:34.692Z,57.30
2022-12-08T02:50:02.322Z,57.74
2022-12-08T02:52:29.302Z,56.95
2022-12-08T02:55:06.285Z,57.11
2022-12-08T02:57:51.051Z,57.14
2022-12-08T03:00:21.342Z,56.68
2022-12-08T03:03:17.349Z,56.35
2022-12-08T03:06:04.789Z,55.94
2022-12-08T03:09:00.175Z,55.47
2022-12-08T03:11:39.283Z,55.46
2022-12-08T03:14:09.501Z,55.37
2022-12-08T03:16:39.504Z,54.88
2022-12-08T03:19:06.260Z,54.90
2022-12-08T03:21:35.818Z,55.05
2022-12-08T03:24:07.506Z,54.88
2022-12-08T03:27:06.634Z,54.43
2022-12-08T03:29:34.165Z,54.06
2022-12-08T03:32:31.912Z,54.70
2022-12-08T03:35:03.187Z,54.42
2022-12-08T03:37:30.411Z,55.01
2022-12-08T03:39:57.440Z,54.33
2022-12-08T03:42:24.606Z,54.29
2022-12-08T03:44:51.518Z,54.69
2022-12-08T03:47:18.446Z,55.49
2022-12-08T03:49:45.347Z,55.18
2022-12-08T03:52:12.424Z,55.08
2022-12-08T03:54:39.298Z,54.70
2022-12-08T03:57:06.263Z,54.56
2022-12-08T03:59:33.090Z,54.69
2022-12-08T04:02:00.207Z,55.11
2022-12-08T04:04:27.168Z,55.26
2022-12-08T04:06:54.066Z,55.46
2022-12-08T04:09:20.902Z,54.83
2022-12-08T04:11:47.943Z,55.01
2022-12-08T04:14:15.329Z,55.15
2022-12-08T04:16:42.271Z,55.67
2022-12-08T04:19:09.196Z,55.12
2022-12-08T04:21:36.232Z,54.94
2022-12-08T04:24:03.182Z,55.15
2022-12-08T04:26:30.126Z,55.08
2022-12-08T04:28:57.051Z,55.32
2022-12-08T04:31:24.167Z,55.34
2022-12-08T04:33:51.065Z,55.74
2022-12-08T04:36:18.029Z,55.47
2022-12-08T04:38:44.905Z,55.28
2022-12-08T04:41:12.043Z,55.68
2022-12-08T04:43:39.000Z,55.28
2022-12-08T04:46:07.664Z,55.03
2022-12-08T04:48:35.065Z,55.74
2022-12-08T04:51:02.002Z,55.74
2022-12-08T04:53:28.883Z,55.46
2022-12-08T04:55:55.841Z,55.35
2022-12-08T04:58:22.688Z,54.54
2022-12-08T05:00:49.997Z,55.14
2022-12-08T05:03:17.622Z,55.17
2022-12-08T05:05:45.070Z,55.05
2022-12-08T05:08:12.167Z,54.53
2022-12-08T05:10:39.607Z,54.97
2022-12-08T05:13:06.620Z,55.56
2022-12-08T05:15:33.545Z,54.32
2022-12-08T05:18:00.608Z,54.22
2022-12-08T05:20:28.161Z,54.29
2022-12-08T05:22:55.124Z,53.68
2022-12-08T05:25:22.102Z,53.62
2022-12-08T05:27:48.940Z,54.08
2022-12-08T05:30:15.985Z,54.08
2022-12-08T05:32:42.874Z,53.98
2022-12-08T05:35:10.353Z,53.99
2022-12-08T05:37:37.232Z,53.90
2022-12-08T05:40:05.027Z,53.87
2022-12-08T05:42:32.187Z,53.94
2022-12-08T05:44:59.099Z,53.64
2022-12-08T05:47:26.419Z,53.43
2022-12-08T05:49:56.260Z,53.96
2022-12-08T05:52:23.061Z,53.75
2022-12-08T05:54:49.964Z,53.99
2022-12-08T05:57:16.864Z,53.79
2022-12-08T05:59:43.656Z,54.50
2022-12-08T06:02:10.632Z,54.55
2022-12-08T06:04:37.568Z,54.49
2022-12-08T06:07:04.682Z,54.20
2022-12-08T06:09:31.720Z,54.89
2022-12-08T06:11:58.627Z,54.54
2022-12-08T06:14:25.461Z,55.04
2022-12-08T06:16:52.480Z,55.19
2022-12-08T06:19:19.644Z,55.14
2022-12-08T06:21:46.564Z,54.47
2022-12-08T06:24:13.475Z,55.13
2022-12-08T06:26:40.426Z,54.38
2022-12-08T06:29:07.899Z,54.34
2022-12-08T06:31:34.823Z,54.49
2022-12-08T06:34:01.789Z,53.88
2022-12-08T06:36:28.729Z,54.10
2022-12-08T06:38:56.231Z,53.60
2022-12-08T06:41:23.483Z,53.46
2022-12-08T06:43:50.338Z,53.70
2022-12-08T06:46:19.729Z,53.68
2022-12-08T06:48:47.635Z,53.58
2022-12-08T06:51:20.530Z,53.75
2022-12-08T06:53:47.828Z,53.09
2022-12-08T06:56:16.049Z,52.83
2022-12-08T06:58:46.166Z,53.50
2022-12-08T07:01:18.016Z,52.92
2022-12-08T07:03:45.005Z,52.94
2022-12-08T07:06:18.346Z,53.66
2022-12-08T07:08:45.189Z,53.50
2022-12-08T07:11:18.032Z,53.83
2022-12-08T07:13:48.208Z,53.33
2022-12-08T07:16:15.140Z,53.31
2022-12-08T07:18:42.171Z,53.84
2022-12-08T07:21:11.451Z,54.29
2022-12-08T07:23:38.841Z,54.88
2022-12-08T07:26:07.718Z,55.41
2022-12-08T07:28:38.489Z,54.64
2022-12-08T07:31:06.946Z,56.04
2022-12-08T07:33:35.056Z,55.98
2022-12-08T07:36:04.416Z,56.10
2022-12-08T07:38:31.873Z,56.58
2022-12-08T07:40:58.992Z,56.28
2022-12-08T07:43:25.926Z,55.74
2022-12-08T07:45:52.987Z,56.39
2022-12-08T07:48:20.203Z,55.99
2022-12-08T07:50:47.527Z,56.03
2022-12-08T07:53:14.760Z,57.08
2022-12-08T07:55:43.362Z,56.94
2022-12-08T07:58:11.216Z,57.47
2022-12-08T08:00:38.363Z,57.27
2022-12-08T08:03:05.343Z,57.86
2022-12-08T08:05:32.351Z,57.51
2022-12-08T08:07:59.217Z,57.11
2022-12-08T08:10:26.248Z,57.29
2022-12-08T08:12:53.404Z,57.25
2022-12-08T08:15:20.373Z,56.60
2022-12-08T08:17:50.502Z,56.78
2022-12-08T08:20:18.148Z,56.79
2022-12-08T08:22:49.430Z,57.78
2022-12-08T08:25:16.964Z,58.63
2022-12-08T08:27:45.115Z,58.22
2022-12-08T08:30:18.355Z,58.15
2022-12-08T08:32:48.515Z,57.59
2022-12-08T08:35:17.931Z,58.12
2022-12-08T08:37:48.845Z,58.04
2022-12-08T08:40:17.597Z,58.00
2022-12-08T08:42:44.414Z,57.25
2022-12-08T08:45:11.614Z,57.28
2022-12-08T08:47:38.509Z,57.33
2022-12-08T08:50:06.405Z,56.96
2022-12-08T08:52:33.495Z,57.18
2022-12-08T08:55:00.431Z,57.32
2022-12-08T08:57:27.551Z,57.95
2022-12-08T08:59:54.548Z,57.50
2022-12-08T09:02:21.950Z,57.60
2022-12-08T09:04:49.294Z,56.54
2022-12-08T09:07:16.376Z,56.79
2022-12-08T09:09:43.313Z,57.14
2022-12-08T09:12:10.397Z,56.34
2022-12-08T09:14:37.330Z,56.66
2022-12-08T09:17:05.030Z,57.15
2022-12-08T09:19:32.232Z,56.77
2022-12-08T09:21:59.179Z,55.78
2022-12-08T09:24:26.473Z,55.20
2022-12-08T09:26:53.264Z,55.48
2022-12-08T09:29:20.221Z,55.12
2022-12-08T09:31:47.368Z,55.42
2022-12-08T09:34:14.699Z,55.21
2022-12-08T09:36:41.590Z,54.33
2022-12-08T09:39:08.857Z,53.58
2022-12-08T09:41:48.842Z,53.72
2022-12-08T09:44:19.188Z,53.93
2022-12-08T09:46:50.156Z,54.24
2022-12-08T09:49:21.652Z,54.44
2022-12-08T09:51:48.577Z,53.91
2022-12-08T09:54:31.149Z,53.95
2022-12-08T09:57:03.426Z,54.10
2022-12-08T09:59:37.290Z,54.91
2022-12-08T10:02:26.593Z,55.09
2022-12-08T10:04:58.931Z,55.63
2022-12-08T10:07:34.029Z,56.27
2022-12-08T10:10:22.493Z,56.56
2022-12-08T10:12:54.683Z,56.71
2022-12-08T10:16:11.079Z,55.79
2022-12-08T10:18:40.301Z,56.56
2022-12-08T10:21:10.156Z,57.33
2022-12-08T10:23:39.632Z,57.58
2022-12-08T10:26:14.749Z,57.53
2022-12-08T10:28:45.226Z,56.33
2022-12-08T10:31:22.518Z,56.54
2022-12-08T10:34:00.111Z,56.35
2022-12-08T10:36:57.379Z,55.91
2022-12-08T10:39:42.101Z,57.04
2022-12-08T10:42:14.818Z,57.17
2022-12-08T10:45:14.914Z,56.79
2022-12-08T10:47:45.391Z,56.00
2022-12-08T10:50:28.348Z,56.23
2022-12-08T10:53:02.979Z,55.80
2022-12-08T10:55:44.070Z,56.86
2022-12-08T10:58:32.770Z,56.59
2022-12-08T11:01:22.607Z,56.29
2022-12-08T11:03:49.519Z,55.84
2022-12-08T11:06:22.516Z,55.99
2022-12-08T11:08:57.460Z,55.88
2022-12-08T11:11:43.921Z,56.09
2022-12-08T11:14:27.104Z,56.33
2022-12-08T11:17:02.467Z,56.04
2022-12-08T11:19:29.603Z,56.88
2022-12-08T11:21:56.683Z,56.28
2022-12-08T11:24:31.306Z,56.78
2022-12-08T11:27:04.872Z,57.16
2022-12-08T11:29:33.963Z,57.36
2022-12-08T11:32:13.975Z,57.43
2022-12-08T11:34:50.687Z,57.45
2022-12-08T11:37:35.276Z,57.67
2022-12-08T11:40:08.429Z,57.73
2022-12-08T11:42:51.497Z,57.13
2022-12-08T11:45:30.272Z,57.59
2022-12-08T11:48:18.067Z,58.39
2022-12-08T11:51:07.323Z,58.65
2022-12-08T11:53:57.728Z,59.78
2022-12-08T11:56:55.975Z,59.01
2022-12-08T11:59:29.297Z,59.53
2022-12-08T12:02:01.732Z,60.54
2022-12-08T12:04:36.019Z,60.14
2022-12-08T12:07:29.092Z,59.66
2022-12-08T12:10:16.393Z,61.44
2022-12-08T12:13:13.086Z,60.88
2022-12-08T12:16:24.663Z,62.22
2022-12-08T12:18:56.190Z,61.97
2022-12-08T12:21:42.192Z,62.41
2022-12-08T12:24:23.787Z,62.96
2022-12-08T12:27:26.819Z,64.21
2022-12-08T12:30:04.570Z,64.81
2022-12-08T12:32:51.381Z,65.22
2022-12-08T12:35:27.463Z,64.46
2022-12-08T12:38:00.398Z,64.92
2022-12-08T12:40:34.171Z,65.72
2022-12-08T12:43:00.981Z,64.92
2022-12-08T12:45:34.947Z,64.61
2022-12-08T12:48:02.051Z,64.58
2022-12-08T12:50:35.014Z,65.97
2022-12-08T12:53:26.183Z,66.15
2022-12-08T12:55:57.264Z,65.85
2022-12-08T12:58:29.929Z,65.45
2022-12-08T13:01:12.312Z,64.85
2022-12-08T13:04:00.613Z,64.89
2022-12-08T13:06:44.416Z,64.79
2022-12-08T13:09:24.069Z,65.16
2022-12-08T13:11:58.945Z,66.02
2022-12-08T13:14:31.849Z,65.04
2022-12-08T13:17:01.685Z,64.97
2022-12-08T13:19:32.171Z,65.00
2022-12-08T13:21:59.444Z,64.89
2022-12-08T13:24:31.554Z,64.96
2022-12-08T13:27:04.765Z,65.04
2022-12-08T13:29:33.650Z,64.86
2022-12-08T13:32:01.682Z,64.39
2022-12-08T13:34:37.447Z,64.50
2022-12-08T13:37:13.635Z,65.40
2022-12-08T13:39:40.787Z,65.41
2022-12-08T13:42:26.588Z,66.06
2022-12-08T13:46:12.216Z,64.74
2022-12-08T13:56:05.456Z,65.11
2022-12-08T13:57:32.903Z,64.29
2022-12-08T14:00:18.426Z,63.95
2022-12-08T14:02:48.843Z,65.59
2022-12-08T14:05:21.668Z,65.51
2022-12-08T14:07:56.274Z,64.90
2022-12-08T14:10:31.548Z,64.63
2022-12-08T14:13:04.112Z,64.95
2022-12-08T14:15:38.110Z,65.12
2022-12-08T14:18:07.346Z,65.21
2022-12-08T14:20:57.750Z,66.75
2022-12-08T14:23:22.507Z,65.83
2022-12-08T14:25:49.589Z,66.05
2022-12-08T14:28:16.809Z,67.13
2022-12-08T14:30:44.190Z,67.00
2022-12-08T14:33:16.412Z,68.22
2022-12-08T14:35:48.282Z,66.87
2022-12-08T14:38:18.220Z,66.58
2022-12-08T14:40:48.033Z,65.65
2022-12-08T14:43:20.731Z,66.19
2022-12-08T14:45:49.012Z,66.25
2022-12-08T14:48:45.287Z,66.42
2022-12-08T14:51:21.644Z,66.18
2022-12-08T14:54:00.934Z,66.72
2022-12-08T14:56:58.071Z,66.12
2022-12-08T14:59:30.948Z,65.53
2022-12-08T15:02:16.323Z,65.41
2022-12-08T15:04:47.090Z,64.71
2022-12-08T15:07:17.984Z,65.29
2022-12-08T15:09:47.829Z,65.04
2022-12-08T15:12:14.652Z,65.74
2022-12-08T15:14:53.850Z,65.81
2022-12-08T15:17:41.247Z,65.36
2022-12-08T15:20:35.076Z,65.32
2022-12-08T15:23:04.832Z,65.15
2022-12-08T15:25:32.760Z,64.39
2022-12-08T15:28:01.988Z,65.12
2022-12-08T15:30:28.912Z,64.74
2022-12-08T15:32:55.973Z,64.49
2022-12-08T15:35:22.968Z,64.80
2022-12-08T15:37:50.191Z,64.67
2022-12-08T15:40:20.609Z,65.04
2022-12-08T15:42:47.709Z,65.04
2022-12-08T15:45:16.176Z,65.39
2022-12-08T15:47:44.544Z,65.70
2022-12-08T15:50:17.938Z,65.85
2022-12-08T15:52:48.971Z,66.03
2022-12-08T15:55:18.600Z,65.00
2022-12-08T15:58:51.995Z,65.37
2022-12-08T16:00:54.225Z,64.78
2022-12-08T16:09:17.644Z,65.83
2022-12-08T16:12:05.757Z,65.96
2022-12-08T16:17:27.192Z,65.31
2022-12-08T16:19:55.224Z,65.46
2022-12-08T16:22:54.111Z,65.29
2022-12-08T16:25:19.848Z,65.37
2022-12-08T16:28:29.351Z,65.67
2022-12-08T16:30:38.397Z,65.91
2022-12-08T16:33:05.797Z,65.58
2022-12-08T16:35:32.841Z,65.75
2022-12-08T16:37:59.853Z,65.73
2022-12-08T16:40:26.996Z,65.04
2022-12-08T16:42:54.113Z,64.79
2022-12-08T16:45:22.705Z,64.93
2022-12-08T16:48:00.749Z,65.09
2022-12-08T16:50:31.274Z,64.94
2022-12-08T16:53:04.446Z,64.66
2022-12-08T16:55:32.015Z,64.57
2022-12-08T16:57:58.940Z,64.76
2022-12-08T17:00:29.000Z,64.70
2022-12-08T17:02:56.491Z,64.22
2022-12-08T17:05:25.345Z,64.47
2022-12-08T17:07:53.563Z,64.43
2022-12-08T17:10:23.550Z,63.79
2022-12-08T17:12:51.089Z,63.77
2022-12-08T17:15:20.987Z,64.12
2022-12-08T17:17:47.971Z,64.02
2022-12-08T17:20:18.270Z,63.87
2022-12-08T17:22:46.003Z,64.14
2022-12-08T17:25:13.169Z,64.01
2022-12-08T17:27:40.506Z,64.60
2022-12-08T17:30:09.576Z,64.72
2022-12-08T17:32:38.084Z,64.53
2022-12-08T17:35:05.779Z,64.20
2022-12-08T17:37:33.115Z,64.67
2022-12-08T17:40:00.199Z,63.84
2022-12-08T17:42:27.661Z,64.29
2022-12-08T17:44:55.939Z,64.28
2022-12-08T17:47:23.303Z,64.34
2022-12-08T17:49:50.533Z,64.35
2022-12-08T17:52:17.828Z,64.07
2022-12-08T17:54:45.299Z,65.10
2022-12-08T17:57:12.902Z,63.75
2022-12-08T17:59:40.521Z,64.38
2022-12-08T18:02:13.689Z,64.39
2022-12-08T18:04:43.685Z,64.06
2022-12-08T18:07:10.614Z,64.29
2022-12-08T18:09:38.489Z,66.16
2022-12-08T18:12:05.789Z,65.47
2022-12-08T18:14:32.882Z,64.65
2022-12-08T18:16:59.907Z,65.26
2022-12-08T18:19:26.839Z,65.01
2022-12-08T18:21:53.798Z,65.34
2022-12-08T18:24:23.975Z,64.42
2022-12-08T18:26:51.752Z,65.16
2022-12-08T18:29:19.482Z,65.50
2022-12-08T18:31:46.922Z,66.13
2022-12-08T18:34:14.253Z,65.67
2022-12-08T18:36:41.078Z,65.60
2022-12-08T18:39:20.509Z,65.30
2022-12-08T18:41:47.461Z,65.60
2022-12-08T18:44:14.360Z,65.81
2022-12-08T18:46:41.360Z,64.87
2022-12-08T18:49:12.395Z,65.56
2022-12-08T18:51:39.433Z,65.12
2022-12-08T18:54:06.346Z,65.59
2022-12-08T18:56:36.112Z,65.19
2022-12-08T18:59:06.399Z,65.68
2022-12-08T19:01:36.319Z,66.04
2022-12-08T19:04:29.060Z,66.21
2022-12-08T19:06:53.294Z,66.19
2022-12-08T19:09:21.111Z,65.91
2022-12-08T19:11:51.090Z,65.62
2022-12-08T19:14:21.378Z,65.85
2022-12-08T19:16:51.403Z,65.87
2022-12-08T19:19:18.382Z,66.12
2022-12-08T19:21:46.708Z,65.77
2022-12-08T19:24:13.950Z,65.68
2022-12-08T19:26:41.839Z,65.67
2022-12-08T19:29:08.987Z,65.14
2022-12-08T19:31:36.121Z,64.78
2022-12-08T19:34:03.272Z,65.97
2022-12-08T19:36:30.134Z,65.03
2022-12-08T19:38:57.273Z,64.93
2022-12-08T19:41:24.779Z,65.96
2022-12-08T19:43:51.638Z,65.38
2022-12-08T19:46:19.313Z,65.82
2022-12-08T19:48:46.295Z,65.78
2022-12-08T19:51:13.193Z,65.16
2022-12-08T19:53:44.452Z,65.55
2022-12-08T19:56:14.525Z,66.07
2022-12-08T19:58:41.456Z,65.38
2022-12-08T20:01:08.478Z,65.46
2022-12-08T20:03:35.612Z,65.68
2022-12-08T20:06:02.630Z,65.24
2022-12-08T20:08:29.568Z,65.24
2022-12-08T20:10:56.597Z,65.21
2022-12-08T20:13:23.494Z,65.06
2022-12-08T20:15:50.527Z,66.25
2022-12-08T20:18:17.612Z,65.73
2022-12-08T20:20:46.051Z,65.04
2022-12-08T20:23:14.649Z,64.46
2022-12-08T20:25:43.615Z,65.34
2022-12-08T20:28:10.629Z,64.73
2022-12-08T20:30:41.912Z,65.33
2022-12-08T20:33:12.432Z,65.52
2022-12-08T20:35:39.484Z,65.39
2022-12-08T20:38:06.388Z,64.89
2022-12-08T20:40:33.367Z,65.28
2022-12-08T20:43:00.371Z,64.76
2022-12-08T20:45:27.436Z,65.00
2022-12-08T20:47:54.405Z,64.48
2022-12-08T20:50:21.577Z,65.17
2022-12-08T20:52:48.555Z,64.48
2022-12-08T20:55:15.699Z,65.72
2022-12-08T20:57:42.722Z,65.99
2022-12-08T21:00:11.246Z,66.03
2022-12-08T21:02:43.277Z,65.80
2022-12-08T21:05:14.298Z,65.46
2022-12-08T21:07:41.634Z,65.25
2022-12-08T21:10:09.791Z,65.40
2022-12-08T21:12:37.195Z,65.35
2022-12-08T21:15:04.698Z,65.70
2022-12-08T21:17:31.830Z,65.97
2022-12-08T21:19:59.017Z,65.57
2022-12-08T21:22:26.042Z,66.32
2022-12-08T21:24:53.014Z,66.20
2022-12-08T21:27:19.937Z,66.26
2022-12-08T21:29:47.196Z,65.53
2022-12-08T21:32:14.169Z,67.31
2022-12-08T21:34:41.583Z,66.94
2022-12-08T21:37:08.566Z,66.05
2022-12-08T21:39:35.598Z,65.70
2022-12-08T21:42:02.560Z,66.28
2022-12-08T21:44:29.715Z,66.39
2022-12-08T21:46:56.712Z,66.40
2022-12-08T21:49:23.843Z,65.80
2022-12-08T21:51:50.743Z,66.07
2022-12-08T21:54:19.274Z,65.83
2022-12-08T21:56:48.089Z,65.71
2022-12-08T21:59:15.798Z,64.85
2022-12-08T22:01:42.786Z,65.87
2022-12-08T22:04:11.589Z,65.89
2022-12-08T22:06:39.556Z,65.62
2022-12-08T22:09:06.675Z,65.83
2022-12-08T22:11:33.711Z,65.68
2022-12-08T22:14:00.698Z,65.68
2022-12-08T22:16:27.673Z,65.85
2022-12-08T22:18:54.785Z,66.22
2022-12-08T22:21:21.627Z,65.72
2022-12-08T22:23:49.777Z,65.47
2022-12-08T22:26:16.673Z,66.15
2022-12-08T22:28:44.136Z,66.05
2022-12-08T22:31:13.683Z,66.09
2022-12-08T22:33:41.649Z,65.05
2022-12-08T22:36:15.443Z,65.62
2022-12-08T22:38:42.553Z,65.21
2022-12-08T22:41:09.424Z,65.89
2022-12-08T22:43:37.183Z,66.42
2022-12-08T22:46:16.024Z,65.88
2022-12-08T22:48:43.249Z,65.44
2022-12-08T22:51:11.004Z,64.82
2022-12-08T22:53:38.150Z,64.77
2022-12-08T22:56:10.461Z,65.69
2022-12-08T22:58:39.104Z,65.28
2022-12-08T23:01:09.451Z,66.14
2022-12-08T23:03:36.722Z,66.50
2022-12-08T23:06:12.376Z,66.31
2022-12-08T23:08:40.110Z,65.73
2022-12-08T23:11:07.107Z,66.08
2022-12-08T23:13:34.164Z,65.77
2022-12-08T23:16:01.193Z,66.51
2022-12-08T23:18:28.242Z,66.56
2022-12-08T23:20:55.192Z,66.64
2022-12-08T23:23:22.316Z,65.96
2022-12-08T23:25:49.340Z,65.90
2022-12-08T23:28:16.305Z,66.15
2022-12-08T23:30:43.187Z,65.45
2022-12-08T23:33:10.105Z,65.99
2022-12-08T23:35:37.775Z,66.14
2022-12-08T23:38:05.071Z,66.31
2022-12-08T23:40:32.026Z,66.31
2022-12-08T23:42:59.177Z,65.62
2022-12-08T23:45:26.180Z,66.50
2022-12-08T23:47:53.185Z,66.29
2022-12-08T23:50:20.192Z,66.40
2022-12-08T23:52:47.329Z,66.07
2022-12-08T23:55:14.163Z,66.19
2022-12-08T23:57:41.086Z,65.74
